sensor_id;sensor_type;location;lat;lon;timestamp;pressure;altitude;pressure_sealevel;temperature;humidity
16431;BME280;8325;49.284;7.238;2022-09-20T04:01:33;99377.09;;;7.06;86.67
16431;BME280;8325;49.284;7.238;2022-09-20T04:14:53;99400.72;;;7.03;87.32
16431;BME280;8325;49.284;7.238;2022-09-20T04:19:28;99391.03;;;7.05;87.88
16431;BME280;8325;49.284;7.238;2022-09-20T04:28:41;99389.47;;;7.24;87.67
16431;BME280;8325;49.284;7.238;2022-09-20T04:33:07;99388.66;;;7.33;88.05
16431;BME280;8325;49.284;7.238;2022-09-20T04:37:27;99389.06;;;7.38;87.17
16431;BME280;8325;49.284;7.238;2022-09-20T04:46:41;99386.22;;;7.41;87.43
16431;BME280;8325;49.284;7.238;2022-09-20T04:51:24;99397.69;;;7.38;87.77
16431;BME280;8325;49.284;7.238;2022-09-20T04:55:54;99408.13;;;7.48;87.50
16431;BME280;8325;49.284;7.238;2022-09-20T05:00:13;99415.25;;;7.46;87.79
16431;BME280;8325;49.284;7.238;2022-09-20T05:19:26;99434.41;;;7.55;88.55
16431;BME280;8325;49.284;7.238;2022-09-20T05:28:17;99433.75;;;7.63;88.72
16431;BME280;8325;49.284;7.238;2022-09-20T05:32:43;99440.47;;;7.65;88.62
16431;BME280;8325;49.284;7.238;2022-09-20T05:37:15;99445.13;;;7.71;88.90
16431;BME280;8325;49.284;7.238;2022-09-20T05:50:39;99441.63;;;8.01;89.19
16431;BME280;8325;49.284;7.238;2022-09-20T05:55:10;99444.06;;;8.13;88.46
16431;BME280;8325;49.284;7.238;2022-09-20T05:59:39;99452.56;;;8.24;88.53
16431;BME280;8325;49.284;7.238;2022-09-20T06:04:20;99444.09;;;8.32;88.88
16431;BME280;8325;49.284;7.238;2022-09-20T06:17:49;99450.38;;;8.59;88.21
16431;BME280;8325;49.284;7.238;2022-09-20T06:22:21;99442.16;;;8.73;87.83
16431;BME280;8325;49.284;7.238;2022-09-20T06:26:35;99434.41;;;9.01;85.99
16431;BME280;8325;49.284;7.238;2022-09-20T06:30:49;99425.31;;;9.14;85.80
16431;BME280;8325;49.284;7.238;2022-09-20T06:35:01;99423.66;;;9.41;89.40
16431;BME280;8325;49.284;7.238;2022-09-20T06:44:07;99455.19;;;9.75;86.19
16431;BME280;8325;49.284;7.238;2022-09-20T06:48:19;99449.34;;;9.36;88.04
16431;BME280;8325;49.284;7.238;2022-09-20T06:52:30;99444.34;;;9.52;87.65
16431;BME280;8325;49.284;7.238;2022-09-20T06:56:43;99442.78;;;9.59;87.68
16431;BME280;8325;49.284;7.238;2022-09-20T07:00:55;99444.53;;;9.68;87.77
16431;BME280;8325;49.284;7.238;2022-09-20T07:05:12;99435.69;;;9.79;86.89
16431;BME280;8325;49.284;7.238;2022-09-20T07:09:24;99445.53;;;9.85;87.76
16431;BME280;8325;49.284;7.238;2022-09-20T07:13:36;99456.06;;;10.11;87.99
16431;BME280;8325;49.284;7.238;2022-09-20T07:17:47;99447.19;;;10.22;86.10
16431;BME280;8325;49.284;7.238;2022-09-20T07:21:59;99461.16;;;10.13;85.97
16431;BME280;8325;49.284;7.238;2022-09-20T07:26:20;99458.53;;;10.31;84.96
16431;BME280;8325;49.284;7.238;2022-09-20T07:30:32;99465.94;;;10.53;84.74
16431;BME280;8325;49.284;7.238;2022-09-20T07:34:44;99472.25;;;10.69;84.28
16431;BME280;8325;49.284;7.238;2022-09-20T07:38:56;99473.88;;;11.56;82.25
16431;BME280;8325;49.284;7.238;2022-09-20T07:43:08;99466.19;;;11.89;80.12
16431;BME280;8325;49.284;7.238;2022-09-20T07:47:19;99475.16;;;11.86;79.71
16431;BME280;8325;49.284;7.238;2022-09-20T07:51:31;99482.91;;;12.04;78.44
16431;BME280;8325;49.284;7.238;2022-09-20T07:55:43;99474.72;;;12.15;79.02
16431;BME280;8325;49.284;7.238;2022-09-20T07:59:54;99476.06;;;12.19;78.42
16431;BME280;8325;49.284;7.238;2022-09-20T08:04:07;99479.47;;;12.12;79.15
16431;BME280;8325;49.284;7.238;2022-09-20T08:08:19;99484.38;;;12.07;78.88
16431;BME280;8325;49.284;7.238;2022-09-20T08:12:30;99481.91;;;12.05;78.84
16431;BME280;8325;49.284;7.238;2022-09-20T08:17:03;99484.38;;;12.15;79.61
16431;BME280;8325;49.284;7.238;2022-09-20T08:21:16;99475.72;;;12.31;79.04
16431;BME280;8325;49.284;7.238;2022-09-20T08:25:28;99483.28;;;12.66;78.10
16431;BME280;8325;49.284;7.238;2022-09-20T08:29:39;99478.31;;;13.04;76.32
16431;BME280;8325;49.284;7.238;2022-09-20T08:33:52;99493.38;;;13.27;74.12
16431;BME280;8325;49.284;7.238;2022-09-20T08:38:04;99499.56;;;13.42;72.72
16431;BME280;8325;49.284;7.238;2022-09-20T08:42:38;99496.91;;;13.50;71.30
16431;BME280;8325;49.284;7.238;2022-09-20T08:47:05;99490.19;;;13.56;71.69
16431;BME280;8325;49.284;7.238;2022-09-20T08:51:20;99489.41;;;13.78;71.58
16431;BME280;8325;49.284;7.238;2022-09-20T08:55:33;99492.84;;;13.79;70.60
16431;BME280;8325;49.284;7.238;2022-09-20T08:59:47;99494.75;;;13.93;70.96
16431;BME280;8325;49.284;7.238;2022-09-20T09:08:27;99485.66;;;14.35;68.35
16431;BME280;8325;49.284;7.238;2022-09-20T09:12:43;99483.22;;;14.57;67.81
16431;BME280;8325;49.284;7.238;2022-09-20T09:16:59;99475.31;;;14.57;66.05
16431;BME280;8325;49.284;7.238;2022-09-20T09:25:35;99476.00;;;14.50;65.48
16431;BME280;8325;49.284;7.238;2022-09-20T09:29:53;99483.03;;;13.73;66.71
16431;BME280;8325;49.284;7.238;2022-09-20T09:38:38;99484.69;;;14.28;66.48
16431;BME280;8325;49.284;7.238;2022-09-20T09:47:03;99478.50;;;14.21;65.39
16431;BME280;8325;49.284;7.238;2022-09-20T09:51:32;99472.06;;;14.46;65.84
16431;BME280;8325;49.284;7.238;2022-09-20T10:00:29;99473.31;;;14.59;64.33
16431;BME280;8325;49.284;7.238;2022-09-20T10:04:48;99472.97;;;14.62;64.37
16431;BME280;8325;49.284;7.238;2022-09-20T10:09:24;99468.75;;;14.76;63.59
16431;BME280;8325;49.284;7.238;2022-09-20T10:13:57;99472.44;;;14.66;62.23
16431;BME280;8325;49.284;7.238;2022-09-20T10:18:27;99472.84;;;14.78;61.60
16431;BME280;8325;49.284;7.238;2022-09-20T10:23:01;99477.94;;;14.94;61.79
16431;BME280;8325;49.284;7.238;2022-09-20T10:32:32;99465.06;;;14.85;60.66
16431;BME280;8325;49.284;7.238;2022-09-20T10:36:51;99462.53;;;14.54;60.74
16431;BME280;8325;49.284;7.238;2022-09-20T10:41:15;99459.28;;;14.43;62.26
16431;BME280;8325;49.284;7.238;2022-09-20T10:45:57;99457.47;;;14.67;61.74
16431;BME280;8325;49.284;7.238;2022-09-20T10:50:57;99458.41;;;14.74;60.24
16431;BME280;8325;49.284;7.238;2022-09-20T10:55:31;99456.72;;;15.40;59.52
16431;BME280;8325;49.284;7.238;2022-09-20T10:59:53;99452.47;;;15.25;59.51
16431;BME280;8325;49.284;7.238;2022-09-20T11:04:31;99456.19;;;15.30;59.38
16431;BME280;8325;49.284;7.238;2022-09-20T11:08:53;99457.53;;;15.26;59.92
16431;BME280;8325;49.284;7.238;2022-09-20T11:13:18;99457.81;;;15.46;58.78
16431;BME280;8325;49.284;7.238;2022-09-20T11:17:40;99460.63;;;15.45;59.49
16431;BME280;8325;49.284;7.238;2022-09-20T11:22:00;99453.63;;;15.52;58.77
16431;BME280;8325;49.284;7.238;2022-09-20T11:26:26;99456.16;;;15.60;57.51
16431;BME280;8325;49.284;7.238;2022-09-20T11:31:01;99457.88;;;15.53;57.41
16431;BME280;8325;49.284;7.238;2022-09-20T11:35:26;99456.16;;;15.60;57.55
16431;BME280;8325;49.284;7.238;2022-09-20T11:39:47;99453.97;;;15.78;56.81
16431;BME280;8325;49.284;7.238;2022-09-20T11:44:05;99450.47;;;15.93;56.78
16431;BME280;8325;49.284;7.238;2022-09-20T11:48:25;99458.78;;;16.32;56.00
16431;BME280;8325;49.284;7.238;2022-09-20T11:57:03;99447.41;;;16.53;56.15
16431;BME280;8325;49.284;7.238;2022-09-20T12:01:26;99439.16;;;16.85;54.62
16431;BME280;8325;49.284;7.238;2022-09-20T12:05:40;99450.97;;;16.67;54.44
16431;BME280;8325;49.284;7.238;2022-09-20T12:09:56;99448.84;;;16.34;52.19
16431;BME280;8325;49.284;7.238;2022-09-20T12:14:27;99459.31;;;16.06;52.19
16431;BME280;8325;49.284;7.238;2022-09-20T12:19:01;99474.75;;;14.99;59.91
16431;BME280;8325;49.284;7.238;2022-09-20T12:32:30;99475.31;;;13.24;67.83
16431;BME280;8325;49.284;7.238;2022-09-20T12:36:43;99476.63;;;13.36;64.76
16431;BME280;8325;49.284;7.238;2022-09-20T12:41:06;99472.72;;;13.16;64.19
16431;BME280;8325;49.284;7.238;2022-09-20T12:45:18;99464.75;;;13.48;65.28
16431;BME280;8325;49.284;7.238;2022-09-20T12:54:16;99458.53;;;13.89;64.42
16431;BME280;8325;49.284;7.238;2022-09-20T12:58:37;99452.28;;;14.13;64.66
16431;BME280;8325;49.284;7.238;2022-09-20T13:07:30;99439.59;;;14.62;63.34
16431;BME280;8325;49.284;7.238;2022-09-20T13:11:54;99448.69;;;14.74;61.55
16431;BME280;8325;49.284;7.238;2022-09-20T13:16:18;99443.75;;;14.94;60.56
16431;BME280;8325;49.284;7.238;2022-09-20T13:20:33;99448.66;;;14.98;59.04
16431;BME280;8325;49.284;7.238;2022-09-20T13:24:47;99454.09;;;15.11;59.84
16431;BME280;8325;49.284;7.238;2022-09-20T13:28:59;99454.09;;;15.11;58.51
16431;BME280;8325;49.284;7.238;2022-09-20T13:33:21;99454.91;;;14.96;58.83
16431;BME280;8325;49.284;7.238;2022-09-20T13:37:33;99459.78;;;14.85;58.10
16431;BME280;8325;49.284;7.238;2022-09-20T13:41:45;99461.56;;;14.69;57.17
16431;BME280;8325;49.284;7.238;2022-09-20T13:46:14;99463.19;;;14.70;57.09
16431;BME280;8325;49.284;7.238;2022-09-20T13:50:31;99449.53;;;14.75;57.21
16431;BME280;8325;49.284;7.238;2022-09-20T13:54:45;99456.78;;;14.73;58.11
16431;BME280;8325;49.284;7.238;2022-09-20T13:59:03;99449.25;;;14.70;57.00
16431;BME280;8325;49.284;7.238;2022-09-20T14:03:16;99448.16;;;14.79;57.11
16431;BME280;8325;49.284;7.238;2022-09-20T14:07:29;99443.03;;;15.15;56.25
16431;BME280;8325;49.284;7.238;2022-09-20T14:11:41;99442.81;;;15.61;53.88
16431;BME280;8325;49.284;7.238;2022-09-20T14:15:52;99433.13;;;15.98;52.96
16431;BME280;8325;49.284;7.238;2022-09-20T14:20:05;99432.91;;;16.00;52.72
16431;BME280;8325;49.284;7.238;2022-09-20T14:24:24;99437.50;;;15.76;53.56
16431;BME280;8325;49.284;7.238;2022-09-20T14:28:36;99455.91;;;15.25;56.52
16431;BME280;8325;49.284;7.238;2022-09-20T14:32:53;99466.94;;;14.30;63.96
16431;BME280;8325;49.284;7.238;2022-09-20T14:37:22;99464.31;;;13.76;69.45
16431;BME280;8325;49.284;7.238;2022-09-20T14:41:36;99460.78;;;13.05;74.62
16431;BME280;8325;49.284;7.238;2022-09-20T14:45:54;99456.75;;;12.78;75.66
16431;BME280;8325;49.284;7.238;2022-09-20T14:50:23;99451.00;;;12.90;76.37
16431;BME280;8325;49.284;7.238;2022-09-20T14:54:35;99437.97;;;13.13;76.18
16431;BME280;8325;49.284;7.238;2022-09-20T14:59:24;99440.56;;;13.30;75.74
16431;BME280;8325;49.284;7.238;2022-09-20T15:03:38;99439.19;;;13.50;75.92
16431;BME280;8325;49.284;7.238;2022-09-20T15:07:54;99438.28;;;13.66;76.24
16431;BME280;8325;49.284;7.238;2022-09-20T15:12:15;99431.06;;;13.68;75.67
16431;BME280;8325;49.284;7.238;2022-09-20T15:16:27;99424.53;;;13.87;75.01
16431;BME280;8325;49.284;7.238;2022-09-20T15:20:39;99431.72;;;13.93;77.16
16431;BME280;8325;49.284;7.238;2022-09-20T15:24:51;99430.88;;;14.01;72.47
16431;BME280;8325;49.284;7.238;2022-09-20T15:29:02;99428.72;;;14.04;73.26
16431;BME280;8325;49.284;7.238;2022-09-20T15:33:14;99426.53;;;14.08;71.89
16431;BME280;8325;49.284;7.238;2022-09-20T15:37:26;99424.09;;;14.30;72.38
16431;BME280;8325;49.284;7.238;2022-09-20T15:41:37;99428.38;;;14.45;70.04
16431;BME280;8325;49.284;7.238;2022-09-20T15:45:53;99423.38;;;14.59;70.40
16431;BME280;8325;49.284;7.238;2022-09-20T15:50:07;99430.00;;;14.46;68.86
16431;BME280;8325;49.284;7.238;2022-09-20T15:54:18;99427.38;;;14.46;68.30
16431;BME280;8325;49.284;7.238;2022-09-20T15:58:32;99425.72;;;14.31;68.34
16431;BME280;8325;49.284;7.238;2022-09-20T16:02:47;99435.00;;;14.18;70.63
16431;BME280;8325;49.284;7.238;2022-09-20T16:06:59;99441.41;;;14.16;71.25
16431;BME280;8325;49.284;7.238;2022-09-20T16:11:13;99443.94;;;14.09;70.49
16431;BME280;8325;49.284;7.238;2022-09-20T16:15:29;99442.22;;;13.93;71.56
16431;BME280;8325;49.284;7.238;2022-09-20T16:19:40;99444.31;;;13.75;70.38
16431;BME280;8325;49.284;7.238;2022-09-20T16:23:55;99449.53;;;13.52;72.27
16431;BME280;8325;49.284;7.238;2022-09-20T16:28:06;99446.94;;;13.35;72.88
16431;BME280;8325;49.284;7.238;2022-09-20T16:32:19;99450.53;;;13.43;74.16
16431;BME280;8325;49.284;7.238;2022-09-20T16:36:31;99451.50;;;13.42;73.78
16431;BME280;8325;49.284;7.238;2022-09-20T16:40:47;99457.31;;;13.29;74.02
16431;BME280;8325;49.284;7.238;2022-09-20T16:44:58;99448.13;;;13.17;72.92
16431;BME280;8325;49.284;7.238;2022-09-20T16:49:10;99453.72;;;13.13;72.59
16431;BME280;8325;49.284;7.238;2022-09-20T16:53:27;99456.66;;;13.19;72.11
16431;BME280;8325;49.284;7.238;2022-09-20T16:57:39;99456.47;;;13.20;72.54
16431;BME280;8325;49.284;7.238;2022-09-20T17:01:50;99463.53;;;13.20;74.15
16431;BME280;8325;49.284;7.238;2022-09-20T17:06:03;99462.56;;;13.12;74.13
16431;BME280;8325;49.284;7.238;2022-09-20T17:10:18;99462.44;;;13.06;73.01
16431;BME280;8325;49.284;7.238;2022-09-20T17:14:30;99465.53;;;13.01;74.32
16431;BME280;8325;49.284;7.238;2022-09-20T17:18:42;99467.53;;;12.91;75.26
16431;BME280;8325;49.284;7.238;2022-09-20T17:22:54;99476.88;;;12.85;75.32
16431;BME280;8325;49.284;7.238;2022-09-20T17:27:06;99476.72;;;12.71;75.75
16431;BME280;8325;49.284;7.238;2022-09-20T17:31:19;99481.47;;;12.67;76.32
16431;BME280;8325;49.284;7.238;2022-09-20T17:35:34;99484.09;;;12.67;77.70
16431;BME280;8325;49.284;7.238;2022-09-20T17:39:45;99486.22;;;12.55;70.06
16431;BME280;8325;49.284;7.238;2022-09-20T17:43:58;99493.78;;;12.50;71.58
16431;BME280;8325;49.284;7.238;2022-09-20T17:48:10;99490.84;;;12.53;73.41
16431;BME280;8325;49.284;7.238;2022-09-20T17:52:22;99498.00;;;12.43;72.40
16431;BME280;8325;49.284;7.238;2022-09-20T17:56:34;99502.44;;;12.26;74.94
16431;BME280;8325;49.284;7.238;2022-09-20T18:00:46;99510.06;;;12.03;74.48
16431;BME280;8325;49.284;7.238;2022-09-20T18:04:57;99528.69;;;12.00;75.36
16431;BME280;8325;49.284;7.238;2022-09-20T18:09:12;99532.03;;;11.76;79.65
16431;BME280;8325;49.284;7.238;2022-09-20T18:13:24;99535.94;;;11.72;81.59
16431;BME280;8325;49.284;7.238;2022-09-20T18:17:37;99533.31;;;11.72;83.76
16431;BME280;8325;49.284;7.238;2022-09-20T18:21:49;99544.22;;;11.59;86.05
16431;BME280;8325;49.284;7.238;2022-09-20T18:26:09;99546.88;;;11.67;86.47
16431;BME280;8325;49.284;7.238;2022-09-20T18:30:33;99556.38;;;11.68;87.00
16431;BME280;8325;49.284;7.238;2022-09-20T18:34:44;99559.97;;;11.67;87.82
16431;BME280;8325;49.284;7.238;2022-09-20T18:39:01;99555.88;;;11.65;86.83
16431;BME280;8325;49.284;7.238;2022-09-20T18:43:13;99564.03;;;11.62;87.53
16431;BME280;8325;49.284;7.238;2022-09-20T18:47:25;99555.66;;;11.58;87.56
16431;BME280;8325;49.284;7.238;2022-09-20T18:51:36;99552.38;;;11.56;87.14
16431;BME280;8325;49.284;7.238;2022-09-20T18:55:50;99558.13;;;11.60;87.30
16431;BME280;8325;49.284;7.238;2022-09-20T19:00:04;99565.94;;;11.51;87.96
16431;BME280;8325;49.284;7.238;2022-09-20T19:09:11;99562.16;;;11.46;87.83
16431;BME280;8325;49.284;7.238;2022-09-20T19:14:09;99569.13;;;11.37;87.72
16431;BME280;8325;49.284;7.238;2022-09-20T19:18:41;99571.16;;;11.25;88.46
16431;BME280;8325;49.284;7.238;2022-09-20T19:27:17;99582.53;;;11.16;89.08
16431;BME280;8325;49.284;7.238;2022-09-20T19:31:30;99579.78;;;11.18;88.33
16431;BME280;8325;49.284;7.238;2022-09-20T19:35:47;99572.09;;;11.16;87.93
16431;BME280;8325;49.284;7.238;2022-09-20T19:49:35;99580.84;;;11.07;90.46
16431;BME280;8325;49.284;7.238;2022-09-20T19:53:51;99578.53;;;11.04;90.49
16431;BME280;8325;49.284;7.238;2022-09-20T19:58:03;99579.13;;;10.98;90.32
16431;BME280;8325;49.284;7.238;2022-09-20T20:02:16;99585.25;;;10.89;90.67
16431;BME280;8325;49.284;7.238;2022-09-20T20:06:33;99583.13;;;10.84;90.45
16431;BME280;8325;49.284;7.238;2022-09-20T20:10:56;99592.97;;;10.72;89.83
16431;BME280;8325;49.284;7.238;2022-09-20T20:15:36;99593.47;;;10.58;89.65
16431;BME280;8325;49.284;7.238;2022-09-20T20:20:14;99599.16;;;10.53;89.22
16431;BME280;8325;49.284;7.238;2022-09-20T20:28:54;99602.44;;;10.38;89.07
16431;BME280;8325;49.284;7.238;2022-09-20T20:33:06;99603.31;;;10.28;89.50
16431;BME280;8325;49.284;7.238;2022-09-20T20:37:18;99602.19;;;10.21;89.48
16431;BME280;8325;49.284;7.238;2022-09-20T20:41:34;99605.09;;;10.18;89.11
16431;BME280;8325;49.284;7.238;2022-09-20T20:45:49;99608.81;;;10.15;89.80
16431;BME280;8325;49.284;7.238;2022-09-20T20:50:00;99611.88;;;10.11;89.86
16431;BME280;8325;49.284;7.238;2022-09-20T20:54:12;99619.00;;;10.09;89.82
16431;BME280;8325;49.284;7.238;2022-09-20T20:58:27;99625.63;;;10.03;90.13
16431;BME280;8325;49.284;7.238;2022-09-20T21:02:39;99628.69;;;9.99;90.05
16431;BME280;8325;49.284;7.238;2022-09-20T21:06:51;99626.13;;;9.89;91.35
16431;BME280;8325;49.284;7.238;2022-09-20T21:11:08;99633.13;;;9.88;90.89
16431;BME280;8325;49.284;7.238;2022-09-20T21:15:19;99630.81;;;9.85;89.97
16431;BME280;8325;49.284;7.238;2022-09-20T21:19:31;99633.69;;;9.82;90.38
16431;BME280;8325;49.284;7.238;2022-09-20T21:23:44;99632.34;;;9.68;89.75
16431;BME280;8325;49.284;7.238;2022-09-20T21:27:58;99629.63;;;9.60;89.47
